createdAt,value
2019-01-17T00:00:02.515Z,20.48
2019-01-17T00:02:37.744Z,10.70
2019-01-17T00:05:17.819Z,10.50
2019-01-17T00:07:50.199Z,13.72
2019-01-17T00:10:28.166Z,7.47
2019-01-17T00:13:00.587Z,8.75
2019-01-17T00:15:47.638Z,12.43
2019-01-17T00:18:19.997Z,9.20
2019-01-17T00:20:51.460Z,16.12
2019-01-17T00:23:32.974Z,10.98
2019-01-17T00:26:13.531Z,14.70
2019-01-17T00:29:00.917Z,17.65
2019-01-17T00:31:35.735Z,20.62
2019-01-17T00:34:08.402Z,18.92
2019-01-17T00:36:40.354Z,15.68
2019-01-17T00:39:25.353Z,18.55
2019-01-17T00:41:57.878Z,17.62
2019-01-17T00:44:46.281Z,19.42
2019-01-17T00:47:20.283Z,19.23
2019-01-17T00:50:08.479Z,16.40
2019-01-17T00:52:49.393Z,17.73
2019-01-17T00:55:37.554Z,20.37
2019-01-17T00:58:21.731Z,18.82
2019-01-17T01:01:02.957Z,19.32
2019-01-17T01:03:41.594Z,19.12
2019-01-17T01:06:19.834Z,21.73
2019-01-17T01:08:52.125Z,22.17
2019-01-17T01:11:30.719Z,14.63
2019-01-17T01:14:19.318Z,20.40
2019-01-17T01:16:53.677Z,23.30
2019-01-17T01:19:28.319Z,20.45
2019-01-17T01:22:06.478Z,16.82
2019-01-17T01:24:46.917Z,18.12
2019-01-17T01:27:34.318Z,11.50
2019-01-17T01:30:08.398Z,14.95
2019-01-17T01:32:40.759Z,13.65
2019-01-17T01:35:12.016Z,11.65
2019-01-17T01:37:56.319Z,11.22
2019-01-17T01:40:30.798Z,11.90
2019-01-17T01:43:03.162Z,11.50
2019-01-17T01:45:38.200Z,13.05
2019-01-17T01:48:13.408Z,14.00
2019-01-17T01:50:45.718Z,12.28
2019-01-17T01:53:16.478Z,11.18
2019-01-17T01:55:47.319Z,13.10
2019-01-17T01:58:18.717Z,13.28
2019-01-17T02:00:51.719Z,12.45
2019-01-17T02:03:22.527Z,9.30
2019-01-17T02:05:53.406Z,10.00
2019-01-17T02:08:23.078Z,10.60
2019-01-17T02:10:53.830Z,10.58
2019-01-17T02:13:24.647Z,12.23
2019-01-17T02:15:55.452Z,13.05
2019-01-17T02:18:26.206Z,8.85
2019-01-17T02:20:57.003Z,7.85
2019-01-17T02:23:28.439Z,6.35
2019-01-17T02:25:58.170Z,8.88
2019-01-17T02:28:29.045Z,9.93
2019-01-17T02:30:59.794Z,4.85
2019-01-17T02:33:31.171Z,8.88
2019-01-17T02:36:01.878Z,8.13
2019-01-17T02:38:32.647Z,7.87
2019-01-17T02:41:03.481Z,9.80
2019-01-17T02:43:34.240Z,8.83
2019-01-17T02:46:05.087Z,12.05
2019-01-17T02:48:34.809Z,13.93
2019-01-17T02:51:05.606Z,16.37
2019-01-17T02:53:36.287Z,17.27
2019-01-17T02:56:07.062Z,13.75
2019-01-17T02:58:36.850Z,16.12
2019-01-17T03:01:07.732Z,12.35
2019-01-17T03:03:38.558Z,11.48
2019-01-17T03:06:11.639Z,19.35
2019-01-17T03:08:42.368Z,11.75
2019-01-17T03:11:13.118Z,13.43
2019-01-17T03:13:43.886Z,17.62
2019-01-17T03:16:13.566Z,12.53
2019-01-17T03:18:44.318Z,13.35
2019-01-17T03:21:15.044Z,11.97
2019-01-17T03:23:44.777Z,10.68
2019-01-17T03:26:15.637Z,12.15
2019-01-17T03:28:48.678Z,12.58
2019-01-17T03:31:19.447Z,13.50
2019-01-17T03:33:49.207Z,12.40
2019-01-17T03:36:20.014Z,13.05
2019-01-17T03:38:50.802Z,16.75
2019-01-17T03:41:21.562Z,10.03
2019-01-17T03:43:52.435Z,13.10
2019-01-17T03:46:22.194Z,12.63
2019-01-17T03:48:51.926Z,9.18
2019-01-17T03:51:22.644Z,11.90
2019-01-17T03:53:55.479Z,5.95
2019-01-17T03:56:24.681Z,12.65
2019-01-17T03:58:55.519Z,12.63
2019-01-17T04:01:26.318Z,13.58
2019-01-17T04:03:57.099Z,14.75
2019-01-17T04:06:27.801Z,13.00
2019-01-17T04:08:57.488Z,12.78
2019-01-17T04:11:28.278Z,13.28
2019-01-17T04:13:58.999Z,14.43
2019-01-17T04:16:29.768Z,16.52
2019-01-17T04:19:00.446Z,9.43
2019-01-17T04:21:31.199Z,14.87
2019-01-17T04:24:02.689Z,15.28
2019-01-17T04:26:33.553Z,15.30
2019-01-17T04:29:04.328Z,14.78
2019-01-17T04:31:35.806Z,12.73
2019-01-17T04:34:06.647Z,14.30
2019-01-17T04:36:36.323Z,12.63
2019-01-17T04:39:09.406Z,12.68
2019-01-17T04:41:40.121Z,12.18
2019-01-17T04:44:10.873Z,13.22
2019-01-17T04:46:42.203Z,14.55
2019-01-17T04:49:12.995Z,13.80
2019-01-17T04:51:45.881Z,13.65
2019-01-17T04:54:16.598Z,17.75
2019-01-17T04:56:47.355Z,12.82
2019-01-17T04:59:18.082Z,13.00
2019-01-17T05:01:48.914Z,13.50
2019-01-17T05:04:19.642Z,8.25
2019-01-17T05:06:50.408Z,9.73
2019-01-17T05:09:21.186Z,12.68
2019-01-17T05:11:50.887Z,15.15
2019-01-17T05:14:21.726Z,12.93
2019-01-17T05:16:52.521Z,11.18
2019-01-17T05:19:23.287Z,14.35
2019-01-17T05:21:54.198Z,15.13
2019-01-17T05:24:24.958Z,5.50
2019-01-17T05:26:55.766Z,11.18
2019-01-17T05:29:26.524Z,6.37
2019-01-17T05:31:57.362Z,10.90
2019-01-17T05:34:28.127Z,12.73
2019-01-17T05:36:58.408Z,13.05
2019-01-17T05:39:29.126Z,8.60
2019-01-17T05:41:59.886Z,14.28
2019-01-17T05:44:30.639Z,8.40
2019-01-17T05:47:01.435Z,12.43
2019-01-17T05:49:33.719Z,9.03
2019-01-17T05:52:04.438Z,13.72
2019-01-17T05:54:35.115Z,16.42
2019-01-17T05:57:06.558Z,14.98
2019-01-17T05:59:37.330Z,12.78
2019-01-17T06:02:08.154Z,15.48
2019-01-17T06:04:37.878Z,11.83
2019-01-17T06:07:09.397Z,16.45
2019-01-17T06:09:40.242Z,14.05
2019-01-17T06:12:11.646Z,10.18
2019-01-17T06:14:42.434Z,15.85
2019-01-17T06:17:12.235Z,11.65
2019-01-17T06:19:43.039Z,10.35
2019-01-17T06:22:13.446Z,14.40
2019-01-17T06:24:44.235Z,15.50
2019-01-17T06:27:15.450Z,10.80
2019-01-17T06:29:46.364Z,8.88
2019-01-17T06:32:17.281Z,10.28
2019-01-17T06:34:48.013Z,11.08
2019-01-17T06:37:18.838Z,8.80
2019-01-17T06:39:50.177Z,10.68
2019-01-17T06:42:21.005Z,11.05
2019-01-17T06:44:51.886Z,12.05
2019-01-17T06:47:22.685Z,12.07
2019-01-17T06:49:53.514Z,9.90
2019-01-17T06:52:24.313Z,10.20
2019-01-17T06:54:53.555Z,8.50
2019-01-17T06:57:25.723Z,12.88
2019-01-17T06:59:56.474Z,11.38
2019-01-17T07:02:27.244Z,10.55
2019-01-17T07:04:58.607Z,12.65
2019-01-17T07:07:29.561Z,12.53
2019-01-17T07:09:59.283Z,15.50
2019-01-17T07:12:29.722Z,8.70
2019-01-17T07:15:01.088Z,11.35
2019-01-17T07:17:31.965Z,13.25
2019-01-17T07:20:02.686Z,14.03
2019-01-17T07:22:35.157Z,12.78
2019-01-17T07:25:05.602Z,12.82
2019-01-17T07:27:36.435Z,11.53
2019-01-17T07:30:19.319Z,11.25
2019-01-17T07:32:50.019Z,10.13
2019-01-17T07:35:20.805Z,15.08
2019-01-17T07:37:50.451Z,14.65
2019-01-17T07:40:20.134Z,15.25
2019-01-17T07:42:51.645Z,38.90
2019-01-17T07:45:29.517Z,22.25
2019-01-17T07:48:00.285Z,29.90
2019-01-17T07:50:31.114Z,13.40
2019-01-17T07:53:01.896Z,16.97
2019-01-17T07:55:32.763Z,12.13
2019-01-17T07:58:03.588Z,7.17
2019-01-17T08:00:34.366Z,7.50
2019-01-17T08:03:05.078Z,4.75
2019-01-17T08:05:35.813Z,8.23
2019-01-17T08:08:05.518Z,9.10
2019-01-17T08:10:36.286Z,4.70
2019-01-17T08:13:07.167Z,10.60
2019-01-17T08:15:38.039Z,8.55
2019-01-17T08:18:08.806Z,7.47
2019-01-17T08:20:41.676Z,5.85
2019-01-17T08:23:12.438Z,9.55
2019-01-17T08:25:42.162Z,6.17
2019-01-17T08:28:11.913Z,5.05
2019-01-17T08:30:42.799Z,5.12
2019-01-17T08:33:12.498Z,4.00
2019-01-17T08:35:43.318Z,5.97
2019-01-17T08:38:12.502Z,3.20
2019-01-17T08:40:45.434Z,2.52
2019-01-17T08:43:23.199Z,5.20
2019-01-17T08:45:54.047Z,2.37
2019-01-17T08:48:24.811Z,3.05
2019-01-17T08:50:55.644Z,2.80
2019-01-17T08:53:26.372Z,5.60
2019-01-17T08:56:00.746Z,3.92
2019-01-17T08:58:28.558Z,6.47
2019-01-17T09:00:59.445Z,4.28
2019-01-17T09:03:30.961Z,4.70
2019-01-17T09:06:00.687Z,3.40
2019-01-17T09:08:30.524Z,6.00
2019-01-17T09:11:01.365Z,4.60
2019-01-17T09:13:32.167Z,5.50
2019-01-17T09:16:02.966Z,6.72
2019-01-17T09:18:34.219Z,4.42
2019-01-17T09:21:05.091Z,8.78
2019-01-17T09:23:35.959Z,5.20
2019-01-17T09:26:07.633Z,9.18
2019-01-17T09:28:38.798Z,7.60
2019-01-17T09:31:11.656Z,3.12
2019-01-17T09:33:41.486Z,5.80
2019-01-17T09:36:12.286Z,6.55
2019-01-17T09:38:43.119Z,6.67
2019-01-17T09:41:14.119Z,9.58
2019-01-17T09:43:44.930Z,9.20
2019-01-17T09:46:17.859Z,5.92
2019-01-17T09:48:50.694Z,5.30
2019-01-17T09:51:21.539Z,5.45
2019-01-17T09:53:52.593Z,5.05
2019-01-17T09:56:23.418Z,3.95
2019-01-17T09:58:53.810Z,4.55
2019-01-17T10:01:24.974Z,4.53
2019-01-17T10:03:55.878Z,6.47
2019-01-17T10:06:28.278Z,4.75
2019-01-17T10:08:59.259Z,3.25
2019-01-17T10:11:30.123Z,3.25
2019-01-17T10:13:59.947Z,4.90
2019-01-17T10:16:33.921Z,7.97
2019-01-17T10:19:07.838Z,2.77
2019-01-17T10:22:11.984Z,3.98
2019-01-17T10:25:10.078Z,6.47
2019-01-17T10:27:45.930Z,8.80
2019-01-17T10:30:38.047Z,3.42
2019-01-17T10:33:12.042Z,4.85
2019-01-17T10:36:00.883Z,6.70
2019-01-17T10:38:37.678Z,5.12
2019-01-17T10:41:27.966Z,3.80
2019-01-17T10:44:12.279Z,2.60
2019-01-17T10:47:14.848Z,5.50
2019-01-17T10:49:51.755Z,2.22
2019-01-17T10:52:25.638Z,4.42
2019-01-17T10:55:05.464Z,5.85
2019-01-17T10:57:51.553Z,5.90
2019-01-17T11:00:37.399Z,4.78
2019-01-17T11:03:22.847Z,8.18
2019-01-17T11:06:01.587Z,7.83
2019-01-17T11:08:40.682Z,4.70
2019-01-17T11:11:32.680Z,5.97
2019-01-17T11:14:14.402Z,5.70
2019-01-17T11:17:02.845Z,3.55
2019-01-17T11:19:48.279Z,7.12
2019-01-17T11:22:36.940Z,3.75
2019-01-17T11:25:27.204Z,5.25
2019-01-17T11:28:19.282Z,3.92
2019-01-17T11:31:20.355Z,6.67
2019-01-17T11:34:05.604Z,5.45
2019-01-17T11:36:42.194Z,4.70
2019-01-17T11:39:21.647Z,5.95
2019-01-17T11:42:07.483Z,5.58
2019-01-17T11:44:41.919Z,8.03
2019-01-17T11:47:36.525Z,3.60
2019-01-17T11:50:34.478Z,10.90
2019-01-17T11:53:38.404Z,5.78
2019-01-17T11:56:21.335Z,2.77
2019-01-17T11:59:10.367Z,5.50
2019-01-17T12:02:06.178Z,6.03
2019-01-17T12:04:36.688Z,7.78
2019-01-17T12:07:12.565Z,6.00
2019-01-17T12:09:43.405Z,3.92
2019-01-17T12:12:14.806Z,4.90
2019-01-17T12:14:45.873Z,7.30
2019-01-17T12:17:16.647Z,4.65
2019-01-17T12:19:47.446Z,5.12
2019-01-17T12:22:18.150Z,4.87
2019-01-17T12:24:48.966Z,5.50
2019-01-17T12:27:18.759Z,4.10
2019-01-17T12:29:49.532Z,4.80
2019-01-17T12:32:20.400Z,7.78
2019-01-17T12:34:51.256Z,3.22
2019-01-17T12:37:22.077Z,7.33
2019-01-17T12:39:52.799Z,4.90
2019-01-17T12:42:23.593Z,3.92
2019-01-17T12:44:54.340Z,5.92
2019-01-17T12:47:25.234Z,5.75
2019-01-17T12:49:56.282Z,6.85
2019-01-17T12:52:27.139Z,5.30
2019-01-17T12:54:58.558Z,6.47
2019-01-17T12:57:29.405Z,5.65
2019-01-17T13:00:00.739Z,6.08
2019-01-17T13:02:30.567Z,6.92
2019-01-17T13:05:01.366Z,3.62
2019-01-17T13:07:32.242Z,8.38
2019-01-17T13:10:03.007Z,7.25
2019-01-17T13:12:33.774Z,6.65
2019-01-17T13:15:03.606Z,7.20
2019-01-17T13:17:34.526Z,8.63
2019-01-17T13:20:05.045Z,6.10
2019-01-17T13:22:35.954Z,4.92
2019-01-17T13:25:10.696Z,8.45
2019-01-17T13:27:41.533Z,6.60
2019-01-17T13:30:20.038Z,11.43
2019-01-17T13:32:49.737Z,7.83
2019-01-17T13:35:20.479Z,10.00
2019-01-17T13:37:51.318Z,7.90
2019-01-17T13:40:23.457Z,7.30
2019-01-17T13:42:54.243Z,10.88
2019-01-17T13:45:25.011Z,10.03
2019-01-17T13:47:55.802Z,8.30
2019-01-17T13:50:26.643Z,11.18
2019-01-17T13:52:57.361Z,10.65
2019-01-17T13:55:28.876Z,8.05
2019-01-17T13:57:59.655Z,11.75
2019-01-17T14:00:29.486Z,8.60
2019-01-17T14:02:59.277Z,7.65
2019-01-17T14:05:30.047Z,11.22
2019-01-17T14:08:01.725Z,7.80
2019-01-17T14:10:32.554Z,11.90
2019-01-17T14:13:03.323Z,14.25
2019-01-17T14:15:33.370Z,9.83
2019-01-17T14:18:04.241Z,10.55
2019-01-17T14:20:35.039Z,9.33
2019-01-17T14:23:05.422Z,13.55
2019-01-17T14:25:35.198Z,8.33
2019-01-17T14:28:05.001Z,13.30
2019-01-17T14:30:36.759Z,8.00
2019-01-17T14:33:07.521Z,7.50
2019-01-17T14:35:37.280Z,11.30
2019-01-17T14:38:08.077Z,14.05
2019-01-17T14:40:38.860Z,8.53
2019-01-17T14:43:09.726Z,7.58
2019-01-17T14:45:41.314Z,10.65
2019-01-17T14:48:12.125Z,13.90
2019-01-17T14:50:42.848Z,13.30
2019-01-17T14:53:14.198Z,10.38
2019-01-17T14:55:44.034Z,13.48
2019-01-17T14:58:14.798Z,11.83
2019-01-17T15:00:45.522Z,17.95
2019-01-17T15:03:15.234Z,23.38
2019-01-17T15:05:44.966Z,15.03
2019-01-17T15:08:15.806Z,17.25
2019-01-17T15:10:45.641Z,15.20
2019-01-17T15:13:16.442Z,12.73
2019-01-17T15:15:49.399Z,17.52
2019-01-17T15:18:20.918Z,13.95
2019-01-17T15:20:50.842Z,13.62
2019-01-17T15:23:19.961Z,10.08
2019-01-17T15:25:49.714Z,9.60
2019-01-17T15:28:20.434Z,12.37
2019-01-17T15:30:50.161Z,10.90
2019-01-17T15:33:20.942Z,12.93
2019-01-17T15:35:50.794Z,11.18
2019-01-17T15:38:21.549Z,15.25
2019-01-17T15:40:52.315Z,14.45
2019-01-17T15:43:23.127Z,11.15
2019-01-17T15:45:53.887Z,13.32
2019-01-17T15:48:24.718Z,14.70
2019-01-17T15:50:54.868Z,13.45
2019-01-17T15:53:24.553Z,8.23
2019-01-17T15:55:55.322Z,19.23
2019-01-17T15:58:26.676Z,13.62
2019-01-17T16:00:57.562Z,9.93
2019-01-17T16:03:28.316Z,9.10
2019-01-17T16:06:01.162Z,11.95
2019-01-17T16:08:32.001Z,9.53
2019-01-17T16:11:02.838Z,11.75
2019-01-17T16:13:33.559Z,11.53
2019-01-17T16:16:04.321Z,13.43
2019-01-17T16:18:35.075Z,14.50
2019-01-17T16:21:05.569Z,15.68
2019-01-17T16:23:36.447Z,13.55
2019-01-17T16:26:07.203Z,12.63
2019-01-17T16:28:36.963Z,11.55
2019-01-17T16:31:06.599Z,14.33
2019-01-17T16:33:37.402Z,13.98
2019-01-17T16:36:08.159Z,15.95
2019-01-17T16:38:39.001Z,14.03
2019-01-17T16:41:09.915Z,12.75
2019-01-17T16:43:41.407Z,16.10
2019-01-17T16:46:12.241Z,14.18
2019-01-17T16:48:43.010Z,15.08
2019-01-17T16:51:12.762Z,11.50
2019-01-17T16:53:43.556Z,10.43
2019-01-17T16:56:14.366Z,15.03
2019-01-17T16:58:45.198Z,11.78
2019-01-17T17:01:15.965Z,14.38
2019-01-17T17:03:45.981Z,13.78
2019-01-17T17:06:16.882Z,14.53
2019-01-17T17:08:47.727Z,11.08
2019-01-17T17:11:18.452Z,16.07
2019-01-17T17:13:49.243Z,13.28
2019-01-17T17:16:19.967Z,13.20
2019-01-17T17:18:50.807Z,13.48
2019-01-17T17:21:21.727Z,13.60
2019-01-17T17:23:52.566Z,10.40
2019-01-17T17:26:22.242Z,10.80
2019-01-17T17:28:53.088Z,13.83
2019-01-17T17:31:23.806Z,15.88
2019-01-17T17:33:54.566Z,16.57
2019-01-17T17:36:24.327Z,10.45
2019-01-17T17:38:55.087Z,14.83
2019-01-17T17:41:25.882Z,12.45
2019-01-17T17:43:58.196Z,13.00
2019-01-17T17:46:28.954Z,16.00
2019-01-17T17:48:58.804Z,15.72
2019-01-17T17:51:30.894Z,14.40
2019-01-17T17:54:00.648Z,13.70
2019-01-17T17:56:31.518Z,16.62
2019-01-17T17:59:02.355Z,17.95
2019-01-17T18:01:32.438Z,14.83
2019-01-17T18:04:02.202Z,15.18
2019-01-17T18:06:32.975Z,17.62
2019-01-17T18:09:03.887Z,18.27
2019-01-17T18:11:34.724Z,21.73
2019-01-17T18:14:06.043Z,14.38
2019-01-17T18:16:37.395Z,20.30
2019-01-17T18:19:08.259Z,17.37
2019-01-17T18:21:38.008Z,22.30
2019-01-17T18:24:08.998Z,23.62
2019-01-17T18:26:39.888Z,15.03
2019-01-17T18:29:10.809Z,16.70
2019-01-17T18:34:36.795Z,18.00
2019-01-17T18:37:06.763Z,12.82
2019-01-17T18:39:37.566Z,13.95
2019-01-17T18:42:08.439Z,16.23
2019-01-17T18:44:39.678Z,16.15
2019-01-17T18:47:09.526Z,15.63
2019-01-17T18:49:40.283Z,17.37
2019-01-17T18:52:11.169Z,17.67
2019-01-17T18:54:42.036Z,13.10
2019-01-17T18:57:11.879Z,14.50
2019-01-17T18:59:42.693Z,17.45
2019-01-17T19:02:12.485Z,18.90
2019-01-17T19:04:43.209Z,19.80
2019-01-17T19:07:13.200Z,20.37
2019-01-17T19:09:42.844Z,17.82
2019-01-17T19:12:14.264Z,13.45
2019-01-17T19:14:45.335Z,17.67
2019-01-17T19:17:16.855Z,15.05
2019-01-17T19:19:47.920Z,14.85
2019-01-17T19:22:18.962Z,18.52
2019-01-17T19:24:50.212Z,16.35
2019-01-17T19:27:21.413Z,18.07
2019-01-17T19:29:52.444Z,15.15
2019-01-17T19:32:23.604Z,18.32
2019-01-17T19:34:54.764Z,15.90
2019-01-17T19:37:25.762Z,16.57
2019-01-17T19:39:55.805Z,12.43
2019-01-17T19:42:26.984Z,13.83
2019-01-17T19:44:58.611Z,16.35
2019-01-17T19:47:29.774Z,13.65
2019-01-17T19:49:59.769Z,7.67
2019-01-17T19:52:30.848Z,12.68
2019-01-17T19:55:02.055Z,12.73
2019-01-17T19:57:31.566Z,16.57
2019-01-17T20:00:01.581Z,16.27
2019-01-17T20:02:35.013Z,10.72
2019-01-17T20:05:07.863Z,12.68
2019-01-17T20:07:39.013Z,11.48
2019-01-17T20:10:13.329Z,11.20
2019-01-17T20:12:44.532Z,14.55
2019-01-17T20:15:16.289Z,12.43
2019-01-17T20:17:47.533Z,20.50
2019-01-17T20:21:22.485Z,12.98
2019-01-17T20:23:55.044Z,12.50
2019-01-17T20:26:26.247Z,22.45
2019-01-17T20:28:57.481Z,14.28
2019-01-17T20:31:29.378Z,12.15
2019-01-17T20:33:59.451Z,15.23
2019-01-17T20:36:30.619Z,13.83
2019-01-17T20:39:01.772Z,16.95
2019-01-17T20:41:32.963Z,9.80
2019-01-17T20:44:03.926Z,10.32
2019-01-17T20:46:37.882Z,8.70
2019-01-17T20:49:08.964Z,11.53
2019-01-17T20:51:39.027Z,13.50
2019-01-17T20:54:09.017Z,16.42
2019-01-17T20:56:41.177Z,13.85
2019-01-17T20:59:13.018Z,16.27
2019-01-17T21:01:58.339Z,9.40
2019-01-17T21:04:29.377Z,16.15
2019-01-17T21:07:05.658Z,9.80
2019-01-17T21:09:33.122Z,12.25
2019-01-17T21:12:04.045Z,16.12
2019-01-17T21:14:34.846Z,16.65
2019-01-17T21:17:05.673Z,12.80
2019-01-17T21:19:35.478Z,12.55
2019-01-17T21:22:06.381Z,10.45
2019-01-17T21:24:37.128Z,12.07
2019-01-17T21:27:09.998Z,14.65
2019-01-17T21:29:40.769Z,15.40
2019-01-17T21:32:11.645Z,21.62
2019-01-17T21:34:43.959Z,10.60
2019-01-17T21:37:15.485Z,13.30
2019-01-17T21:39:46.242Z,12.13
2019-01-17T21:42:17.076Z,16.60
2019-01-17T21:44:49.957Z,10.70
2019-01-17T21:47:19.714Z,11.05
2019-01-17T21:49:50.514Z,12.73
2019-01-17T21:52:21.239Z,12.15
2019-01-17T21:54:52.041Z,12.43
2019-01-17T21:57:22.843Z,13.62
2019-01-17T21:59:53.726Z,12.33
2019-01-17T22:02:24.478Z,13.22
2019-01-17T22:04:55.247Z,15.83
2019-01-17T22:07:25.075Z,11.57
2019-01-17T22:10:01.364Z,7.85
2019-01-17T22:12:27.162Z,11.33
2019-01-17T22:14:57.638Z,10.40
2019-01-17T22:17:27.363Z,10.68
2019-01-17T22:19:58.046Z,10.08
2019-01-17T22:22:27.683Z,11.88
2019-01-17T22:24:58.122Z,9.08
2019-01-17T22:27:27.885Z,12.25
2019-01-17T22:29:58.716Z,12.50
2019-01-17T22:32:29.554Z,13.50
2019-01-17T22:35:00.273Z,14.23
2019-01-17T22:37:31.034Z,12.90
2019-01-17T22:40:01.835Z,12.10
2019-01-17T22:42:32.600Z,10.90
2019-01-17T22:45:03.447Z,12.25
2019-01-17T22:47:34.203Z,15.65
2019-01-17T22:50:04.966Z,12.65
2019-01-17T22:52:36.314Z,12.07
2019-01-17T22:55:08.287Z,16.00
2019-01-17T22:57:37.961Z,11.08
2019-01-17T23:00:31.633Z,11.03
2019-01-17T23:03:01.362Z,14.18
2019-01-17T23:05:31.043Z,13.58
2019-01-17T23:08:01.883Z,12.18
2019-01-17T23:10:32.643Z,13.40
2019-01-17T23:13:03.076Z,13.28
2019-01-17T23:15:33.881Z,15.05
2019-01-17T23:18:04.606Z,12.23
2019-01-17T23:20:35.327Z,9.88
2019-01-17T23:23:06.044Z,14.33
2019-01-17T23:25:37.393Z,5.67
2019-01-17T23:28:08.158Z,12.13
2019-01-17T23:30:38.971Z,12.10
2019-01-17T23:33:09.806Z,15.63
2019-01-17T23:35:39.438Z,7.92
2019-01-17T23:38:10.201Z,11.03
2019-01-17T23:40:39.956Z,14.07
2019-01-17T23:43:09.129Z,9.28
2019-01-17T23:45:39.961Z,11.63
2019-01-17T23:48:09.635Z,8.60
2019-01-17T23:50:40.443Z,8.23
2019-01-17T23:53:11.198Z,12.30
2019-01-17T23:55:41.995Z,12.68
2019-01-17T23:58:14.838Z,11.97
